Time;durP1;ratioP1;P1;durP2;ratioP2;P2;SDS_P1;SDS_P2;PMS_P1;PMS_P2;Temp;Humidity;BMP_temperature;BMP_pressure;BME280_temperature;BME280_humidity;BME280_pressure;Samples;Min_cycle;Max_cycle;Signal;HPM_P1;HPM_P2
2021/01/27 00:04:13;;;;;;;10.73;5.05;;;6.40;68.70;;;;;;4984976;23;20220;-83
2021/01/27 00:28:24;;;;;;;6.78;5.45;;;5.70;73.10;;;;;;4969121;23;20224;-84
2021/01/27 03:39:15;;;;;;;2.50;2.30;;;5.40;75.60;;;;;;5442595;23;20220;-84
2021/01/27 04:29:52;;;;;;;5.10;3.03;;;5.90;77.80;;;;;;4980949;28;20189;-86
2021/01/27 05:17:39;;;;;;;3.60;3.30;;;5.80;78.80;;;;;;5006455;23;20275;-84
2021/01/27 05:53:23;;;;;;;3.80;3.22;;;6.30;78.20;;;;;;4982252;28;20240;-83
2021/01/27 06:02:23;;;;;;;4.30;3.90;;;6.60;78.10;;;;;;4977506;28;20210;-86
2021/01/27 06:04:57;;;;;;;7.87;4.47;;;6.70;78.20;;;;;;4957003;29;20225;-87
2021/01/27 06:07:26;;;;;;;4.82;4.38;;;6.70;77.60;;;;;;4961525;29;20188;-85
2021/01/27 06:09:55;;;;;;;6.70;4.70;;;6.70;77.30;;;;;;4966474;28;20200;-86
2021/01/27 06:12:21;;;;;;;5.18;4.63;;;6.70;76.90;;;;;;4966521;28;20192;-85
2021/01/27 06:14:48;;;;;;;6.83;4.57;;;6.80;77.00;;;;;;4965470;28;20212;-85
2021/01/27 06:17:40;;;;;;;8.25;4.45;;;6.70;76.90;;;;;;4960943;29;20212;-87
2021/01/27 06:23:36;;;;;;;11.98;4.25;;;6.70;76.40;;;;;;4980584;23;20248;-86
2021/01/27 06:42:51;;;;;;;4.13;3.72;;;6.90;77.10;;;;;;4973465;28;20212;-88
2021/01/27 06:45:22;;;;;;;5.30;4.05;;;6.90;77.10;;;;;;4974870;28;20196;-85
2021/01/27 06:48:15;;;;;;;5.43;4.40;;;6.90;77.20;;;;;;4946902;29;20185;-86
2021/01/27 06:51:03;;;;;;;4.60;3.97;;;7.00;77.10;;;;;;4950380;28;20231;-84
2021/01/27 06:56:47;;;;;;;7.07;4.80;;;7.00;76.90;;;;;;4971245;28;20196;-87
2021/01/27 07:26:21;;;;;;;8.77;6.00;;;6.90;78.40;;;;;;5030258;23;20223;-87
2021/01/27 07:35:51;;;;;;;11.82;6.10;;;6.90;78.20;;;;;;5001043;28;20155;-90
2021/01/27 07:38:21;;;;;;;6.95;4.82;;;7.00;78.20;;;;;;4984042;28;20216;-86
2021/01/27 07:41:01;;;;;;;6.72;5.18;;;7.00;78.10;;;;;;4984415;28;20261;-90
2021/01/27 07:43:37;;;;;;;8.95;6.40;;;7.00;77.90;;;;;;4988004;28;20159;-90
2021/01/27 07:46:03;;;;;;;9.10;6.45;;;7.00;77.70;;;;;;5003760;28;20171;-90
2021/01/27 07:48:37;;;;;;;7.35;5.78;;;7.00;77.60;;;;;;5003502;28;20179;-87
2021/01/27 07:51:15;;;;;;;8.55;5.53;;;7.00;77.50;;;;;;5002968;28;20250;-89
2021/01/27 07:53:59;;;;;;;6.10;4.65;;;7.00;77.50;;;;;;5003695;28;20196;-88
2021/01/27 07:56:43;;;;;;;10.52;5.88;;;7.00;77.60;;;;;;5003263;28;20171;-87
2021/01/27 07:59:20;;;;;;;12.00;6.10;;;7.10;77.70;;;;;;5003699;28;20198;-91
2021/01/27 08:01:49;;;;;;;6.70;5.55;;;7.20;77.70;;;;;;5003274;28;20190;-92
2021/01/27 08:04:33;;;;;;;9.20;5.22;;;7.20;77.60;;;;;;5003475;28;20156;-94
2021/01/27 08:07:00;;;;;;;11.63;5.95;;;7.20;77.40;;;;;;5003678;28;20160;-93
2021/01/27 08:09:35;;;;;;;9.10;6.20;;;7.20;77.30;;;;;;5002808;28;20151;-91
2021/01/27 08:12:29;;;;;;;9.00;6.82;;;7.20;77.30;;;;;;5003369;28;20206;-91
2021/01/27 08:15:03;;;;;;;7.70;6.93;;;7.10;76.90;;;;;;5003548;28;20178;-93
2021/01/27 08:17:54;;;;;;;10.50;6.85;;;7.20;77.20;;;;;;5003323;28;20196;-92
2021/01/27 08:20:20;;;;;;;8.45;6.05;;;7.20;77.80;;;;;;4996819;28;20196;-91
2021/01/27 08:23:07;;;;;;;6.90;5.60;;;7.20;77.40;;;;;;4982626;28;20204;-89
2021/01/27 08:25:55;;;;;;;10.45;5.70;;;7.30;77.50;;;;;;4983548;28;20187;-86
2021/01/27 08:28:23;;;;;;;6.95;5.45;;;7.30;77.50;;;;;;4970619;28;20255;-90
2021/01/27 08:31:07;;;;;;;15.40;7.18;;;7.40;77.60;;;;;;4971200;28;20196;-91
2021/01/27 08:33:54;;;;;;;10.50;6.97;;;7.30;77.40;;;;;;4976228;28;20191;-89
2021/01/27 08:36:29;;;;;;;13.05;7.68;;;7.40;77.50;;;;;;4980351;28;20168;-93
2021/01/27 08:38:58;;;;;;;9.70;7.15;;;7.40;77.30;;;;;;4980307;28;20238;-90
2021/01/27 08:42:01;;;;;;;8.38;6.68;;;7.40;77.20;;;;;;4971366;28;20212;-89
2021/01/27 08:44:39;;;;;;;10.13;7.30;;;7.40;76.90;;;;;;4973821;28;20180;-88
2021/01/27 08:47:19;;;;;;;12.45;7.70;;;7.40;77.10;;;;;;4971528;28;20178;-89
2021/01/27 08:49:49;;;;;;;10.68;7.50;;;7.50;77.30;;;;;;4970038;28;20176;-88
2021/01/27 08:52:15;;;;;;;12.30;7.30;;;7.50;77.10;;;;;;4967862;28;20227;-88
2021/01/27 08:54:41;;;;;;;10.03;6.50;;;7.50;77.20;;;;;;4969687;28;20179;-85
2021/01/27 08:57:28;;;;;;;8.43;6.27;;;7.60;77.40;;;;;;4981140;28;20545;-86
2021/01/27 08:59:56;;;;;;;8.85;7.30;;;7.60;77.50;;;;;;4982334;28;20210;-86
2021/01/27 09:02:43;;;;;;;13.13;7.35;;;7.70;77.80;;;;;;4981851;28;20238;-86
2021/01/27 09:05:24;;;;;;;13.50;8.05;;;7.70;77.80;;;;;;4980951;28;20525;-86
2021/01/27 09:07:58;;;;;;;15.82;9.05;;;7.80;77.80;;;;;;4981008;28;20186;-86
2021/01/27 09:10:33;;;;;;;10.75;8.20;;;7.90;77.70;;;;;;4980575;28;20249;-86
2021/01/27 09:13:18;;;;;;;10.30;7.30;;;7.80;77.40;;;;;;4980890;28;20595;-87
2021/01/27 09:15:45;;;;;;;12.77;8.82;;;7.90;77.50;;;;;;4983191;28;20179;-86
2021/01/27 09:18:14;;;;;;;13.30;7.85;;;7.90;77.00;;;;;;4983272;28;20211;-87
2021/01/27 09:20:39;;;;;;;12.32;7.95;;;7.80;76.80;;;;;;4972507;28;20225;-88
2021/01/27 09:23:07;;;;;;;13.00;8.63;;;7.90;77.10;;;;;;4965596;28;20184;-87
2021/01/27 09:25:42;;;;;;;12.30;8.13;;;8.00;77.20;;;;;;4966599;28;20208;-87
2021/01/27 09:28:09;;;;;;;12.52;8.45;;;8.00;77.10;;;;;;4972339;28;20203;-87
2021/01/27 09:30:35;;;;;;;11.85;8.48;;;8.00;77.00;;;;;;4981828;28;20198;-86
2021/01/27 09:33:16;;;;;;;12.88;8.35;;;8.10;77.20;;;;;;4965015;28;20240;-86
2021/01/27 09:35:47;;;;;;;13.65;7.88;;;8.20;77.30;;;;;;4969219;28;20209;-87
2021/01/27 09:38:21;;;;;;;14.73;7.88;;;8.20;77.10;;;;;;4972643;28;20565;-87
2021/01/27 09:40:51;;;;;;;20.60;7.97;;;8.30;77.10;;;;;;4965879;28;20215;-87
2021/01/27 09:43:20;;;;;;;15.82;8.80;;;8.30;77.00;;;;;;4972427;28;20180;-87
2021/01/27 09:45:48;;;;;;;15.60;9.55;;;8.40;76.90;;;;;;4973099;28;20195;-88
2021/01/27 09:48:18;;;;;;;13.75;9.05;;;8.40;76.80;;;;;;4968373;28;20187;-88
2021/01/27 09:51:04;;;;;;;10.88;8.30;;;8.50;76.80;;;;;;4968820;28;20185;-88
2021/01/27 09:53:38;;;;;;;15.13;8.43;;;8.50;76.70;;;;;;4968236;28;20203;-88
2021/01/27 09:56:05;;;;;;;12.45;8.70;;;8.50;76.70;;;;;;4967639;28;20191;-89
2021/01/27 09:58:31;;;;;;;12.25;8.82;;;8.60;76.30;;;;;;4968911;28;20208;-89
2021/01/27 10:01:03;;;;;;;12.10;8.53;;;8.60;76.30;;;;;;4970882;28;20183;-88
2021/01/27 10:03:37;;;;;;;16.45;9.27;;;8.60;76.20;;;;;;4985286;28;20522;-88
2021/01/27 10:06:03;;;;;;;16.98;12.05;;;8.70;76.20;;;;;;4983547;28;20474;-89
2021/01/27 10:08:32;;;;;;;17.92;10.30;;;8.60;75.80;;;;;;4979305;28;20196;-89
2021/01/27 10:11:06;;;;;;;14.63;8.95;;;8.70;76.10;;;;;;4970127;28;20203;-84
2021/01/27 10:13:33;;;;;;;14.38;9.88;;;8.70;76.20;;;;;;4967408;28;20176;-85
2021/01/27 10:16:08;;;;;;;17.27;10.05;;;8.70;76.10;;;;;;4966986;28;20207;-85
2021/01/27 10:18:36;;;;;;;14.15;9.40;;;8.70;76.00;;;;;;4970411;28;20195;-85
2021/01/27 10:21:05;;;;;;;18.90;13.50;;;8.70;76.00;;;;;;4982177;28;20432;-86
2021/01/27 10:23:36;;;;;;;19.45;11.23;;;8.70;76.10;;;;;;4981193;28;20407;-86
2021/01/27 10:26:41;;;;;;;15.05;10.82;;;8.70;76.20;;;;;;4998486;28;20199;-86
2021/01/27 10:29:15;;;;;;;18.10;10.77;;;8.80;76.10;;;;;;4976848;28;20196;-86
2021/01/27 10:32:04;;;;;;;14.00;9.80;;;8.80;76.20;;;;;;4971058;28;20225;-86
2021/01/27 10:34:34;;;;;;;16.25;9.73;;;8.80;76.30;;;;;;4981833;28;20214;-85
2021/01/27 10:37:00;;;;;;;14.68;8.77;;;8.90;76.30;;;;;;4973664;28;20200;-89
2021/01/27 10:39:29;;;;;;;15.27;9.82;;;8.90;76.40;;;;;;4962398;28;20180;-87
2021/01/27 10:42:14;;;;;;;16.52;9.73;;;8.90;76.40;;;;;;4961609;28;20226;-87
2021/01/27 10:44:41;;;;;;;15.57;9.70;;;8.90;76.40;;;;;;4993650;28;20172;-85
2021/01/27 10:47:10;;;;;;;19.70;11.07;;;8.90;76.50;;;;;;4982887;28;20651;-86
2021/01/27 10:49:38;;;;;;;20.15;12.73;;;9.00;76.50;;;;;;4981448;28;20222;-86
2021/01/27 10:52:07;;;;;;;23.63;10.80;;;9.00;76.50;;;;;;4990978;28;20693;-88
2021/01/27 10:54:34;;;;;;;18.77;11.82;;;9.00;76.50;;;;;;4979561;28;20188;-88
2021/01/27 10:56:59;;;;;;;18.55;10.27;;;9.00;76.50;;;;;;4975083;28;20720;-89
2021/01/27 10:59:25;;;;;;;19.67;12.83;;;9.00;76.50;;;;;;4977553;28;20180;-87
2021/01/27 11:01:51;;;;;;;16.80;11.10;;;9.00;76.40;;;;;;4980945;28;20196;-89
2021/01/27 11:04:17;;;;;;;21.70;12.00;;;9.00;76.40;;;;;;4963945;28;20171;-89
2021/01/27 11:06:43;;;;;;;21.43;11.73;;;9.00;76.40;;;;;;4964672;28;20459;-88
2021/01/27 11:09:10;;;;;;;21.25;11.32;;;9.10;76.50;;;;;;4967628;28;20192;-87
2021/01/27 11:11:36;;;;;;;26.10;12.60;;;9.10;76.50;;;;;;4962962;28;20211;-89
2021/01/27 11:14:06;;;;;;;19.00;12.25;;;9.10;76.50;;;;;;4964881;28;20281;-88
2021/01/27 11:16:32;;;;;;;20.52;12.57;;;9.10;76.40;;;;;;4964102;28;20188;-88
2021/01/27 11:18:58;;;;;;;21.88;12.07;;;9.10;76.30;;;;;;4962862;28;20299;-88
2021/01/27 11:21:25;;;;;;;26.33;16.60;;;9.20;76.30;;;;;;4962084;28;20778;-87
2021/01/27 11:23:51;;;;;;;23.65;12.80;;;9.20;76.10;;;;;;4963740;28;20182;-88
2021/01/27 11:26:20;;;;;;;21.67;12.45;;;9.20;76.20;;;;;;4980516;28;20203;-87
2021/01/27 11:28:49;;;;;;;20.70;12.75;;;9.20;76.90;;;;;;4972827;28;20180;-88
2021/01/27 11:31:16;;;;;;;23.52;12.00;;;9.30;76.10;;;;;;4987080;28;20213;-87
2021/01/27 11:33:44;;;;;;;20.27;12.18;;;9.20;76.00;;;;;;4988358;28;20202;-88
2021/01/27 11:36:10;;;;;;;20.63;11.63;;;9.30;76.00;;;;;;4972820;28;20703;-88
2021/01/27 11:38:36;;;;;;;23.50;12.75;;;9.40;76.00;;;;;;4963617;28;20638;-88
2021/01/27 11:41:02;;;;;;;18.70;11.43;;;9.40;76.10;;;;;;4982351;28;20239;-89
2021/01/27 11:43:28;;;;;;;20.65;12.25;;;9.40;76.00;;;;;;4965165;28;20184;-88
2021/01/27 11:45:54;;;;;;;20.90;12.20;;;9.40;75.90;;;;;;4981249;28;20188;-88
2021/01/27 11:48:20;;;;;;;26.77;13.10;;;9.50;76.00;;;;;;4981514;28;20187;-87
2021/01/27 11:50:46;;;;;;;24.58;13.52;;;9.50;75.90;;;;;;4985815;28;20289;-87
2021/01/27 11:53:11;;;;;;;19.67;12.07;;;9.50;76.00;;;;;;4983488;28;20191;-87
2021/01/27 11:55:37;;;;;;;20.37;12.80;;;9.60;75.90;;;;;;4983866;28;20261;-88
2021/01/27 11:58:03;;;;;;;18.70;12.17;;;9.60;75.70;;;;;;4984448;28;20464;-88
2021/01/27 12:00:30;;;;;;;21.63;13.40;;;9.60;75.60;;;;;;5003340;28;20535;-88
2021/01/27 12:02:57;;;;;;;23.08;12.20;;;9.70;75.60;;;;;;4984954;28;20175;-88
2021/01/27 12:05:24;;;;;;;25.02;12.10;;;9.70;75.50;;;;;;4987116;28;20210;-88
2021/01/27 12:07:49;;;;;;;29.52;13.02;;;9.70;75.30;;;;;;4986691;28;20183;-88
2021/01/27 12:10:16;;;;;;;20.20;11.33;;;9.70;75.30;;;;;;4984684;28;20183;-88
2021/01/27 12:12:41;;;;;;;28.35;13.85;;;9.70;76.00;;;;;;4986106;28;20234;-91
2021/01/27 12:15:08;;;;;;;21.73;13.40;;;9.70;75.40;;;;;;4987732;28;20183;-90
2021/01/27 12:17:34;;;;;;;25.77;13.95;;;9.70;75.30;;;;;;4985478;28;20206;-88
2021/01/27 12:20:00;;;;;;;27.80;13.70;;;9.70;75.30;;;;;;4969784;28;20184;-89
2021/01/27 12:22:26;;;;;;;29.80;13.43;;;9.80;75.90;;;;;;4968079;28;20199;-91
2021/01/27 12:24:52;;;;;;;29.50;14.37;;;9.80;75.20;;;;;;4966509;28;20720;-91
2021/01/27 12:27:18;;;;;;;21.47;13.60;;;9.90;75.30;;;;;;4974032;28;20434;-91
2021/01/27 12:29:44;;;;;;;22.83;13.93;;;9.90;75.30;;;;;;4975900;28;20416;-91
2021/01/27 12:32:12;;;;;;;28.70;15.47;;;10.00;75.10;;;;;;4977085;28;20211;-90
2021/01/27 12:34:38;;;;;;;31.70;14.55;;;10.00;75.00;;;;;;4994629;28;20242;-90
2021/01/27 12:37:04;;;;;;;28.53;15.30;;;10.00;75.10;;;;;;4968671;28;20274;-89
2021/01/27 12:39:29;;;;;;;30.47;13.90;;;10.00;74.90;;;;;;4965802;28;20187;-88
2021/01/27 12:41:55;;;;;;;28.60;14.90;;;10.00;74.80;;;;;;4964351;28;20192;-88
2021/01/27 12:44:22;;;;;;;29.03;14.83;;;9.90;74.70;;;;;;4982715;28;20186;-88
2021/01/27 12:46:48;;;;;;;28.63;15.65;;;10.00;74.80;;;;;;4964724;28;20180;-89
2021/01/27 12:49:13;;;;;;;27.37;15.63;;;10.00;74.60;;;;;;4963563;28;20180;-89
2021/01/27 12:51:39;;;;;;;32.90;14.90;;;9.90;74.70;;;;;;4970149;28;20195;-89
2021/01/27 12:54:05;;;;;;;26.97;15.30;;;9.90;74.80;;;;;;4964769;28;20179;-89
2021/01/27 12:56:30;;;;;;;34.90;15.80;;;9.90;74.90;;;;;;4966711;28;20183;-89
2021/01/27 12:58:56;;;;;;;40.25;19.73;;;9.90;75.10;;;;;;4964177;28;20493;-91
2021/01/27 13:01:22;;;;;;;42.57;18.50;;;9.90;75.10;;;;;;4969085;28;20290;-90
2021/01/27 13:03:48;;;;;;;33.40;18.23;;;9.90;75.40;;;;;;4977670;28;20159;-90
2021/01/27 13:06:14;;;;;;;32.40;17.70;;;9.90;75.40;;;;;;4976811;28;20811;-91
2021/01/27 13:08:41;;;;;;;40.08;17.25;;;10.00;75.30;;;;;;4978521;28;20202;-91
2021/01/27 13:11:08;;;;;;;36.47;19.77;;;10.00;75.20;;;;;;4966776;28;20294;-92
2021/01/27 13:13:33;;;;;;;45.47;19.35;;;10.00;75.20;;;;;;4964125;28;20239;-91
2021/01/27 13:15:59;;;;;;;37.40;18.00;;;10.00;75.20;;;;;;4961365;28;20180;-91
2021/01/27 13:18:25;;;;;;;44.83;20.60;;;10.00;75.30;;;;;;4961010;28;20290;-92
2021/01/27 13:20:51;;;;;;;39.60;18.33;;;10.00;75.30;;;;;;4962081;28;20435;-91
2021/01/27 13:23:17;;;;;;;37.87;18.90;;;10.10;75.40;;;;;;4962564;28;20419;-87
2021/01/27 13:25:42;;;;;;;46.23;20.17;;;10.10;76.10;;;;;;4961479;28;20953;-88
2021/01/27 13:28:08;;;;;;;35.87;19.00;;;10.10;75.40;;;;;;4977373;28;20243;-86
2021/01/27 13:30:36;;;;;;;42.70;20.77;;;10.10;75.50;;;;;;4965806;28;20419;-88
2021/01/27 13:33:05;;;;;;;39.50;19.23;;;10.10;75.50;;;;;;4959193;28;20423;-88
2021/01/27 13:35:30;;;;;;;46.63;20.17;;;10.10;75.60;;;;;;4959374;28;20184;-89
2021/01/27 13:37:57;;;;;;;42.73;21.40;;;10.20;75.50;;;;;;4960431;28;20250;-89
2021/01/27 13:40:24;;;;;;;47.22;21.65;;;10.20;75.50;;;;;;4959220;28;20176;-89
2021/01/27 13:42:49;;;;;;;41.30;20.98;;;10.30;75.60;;;;;;4965598;28;20620;-89
2021/01/27 13:45:15;;;;;;;51.00;25.03;;;10.30;75.60;;;;;;4978842;28;20176;-88
2021/01/27 13:47:41;;;;;;;40.37;20.70;;;10.30;75.50;;;;;;4997060;28;20176;-88
2021/01/27 13:50:10;;;;;;;47.73;23.23;;;10.30;75.60;;;;;;4979432;28;20570;-89
2021/01/27 13:52:36;;;;;;;50.50;21.77;;;10.40;75.60;;;;;;4978530;28;20442;-89
2021/01/27 13:55:06;;;;;;;45.60;21.53;;;10.40;75.60;;;;;;4979663;28;20567;-88
2021/01/27 13:57:32;;;;;;;40.33;21.90;;;10.40;75.50;;;;;;4979900;28;20953;-88
2021/01/27 13:59:58;;;;;;;54.07;24.90;;;10.40;75.50;;;;;;4978972;28;20176;-89
2021/01/27 14:02:23;;;;;;;48.43;24.33;;;10.50;75.60;;;;;;4993037;28;20207;-89
2021/01/27 14:04:49;;;;;;;65.13;27.40;;;10.50;75.50;;;;;;5018149;28;20179;-89
2021/01/27 14:07:15;;;;;;;60.40;26.07;;;10.50;75.40;;;;;;5002201;28;20163;-88
2021/01/27 14:09:42;;;;;;;51.83;25.53;;;10.50;75.40;;;;;;4995536;28;20179;-88
2021/01/27 14:12:08;;;;;;;62.72;25.35;;;10.50;75.40;;;;;;4986452;28;20473;-89
2021/01/27 14:14:33;;;;;;;57.90;24.87;;;10.50;75.50;;;;;;4981928;28;20183;-89
2021/01/27 14:16:59;;;;;;;49.00;23.07;;;10.60;75.60;;;;;;4982083;28;20509;-89
2021/01/27 14:19:25;;;;;;;65.27;24.20;;;10.60;75.50;;;;;;4990400;28;20180;-89
2021/01/27 14:21:51;;;;;;;53.10;24.37;;;10.60;75.50;;;;;;4962437;28;20196;-89
2021/01/27 14:24:16;;;;;;;52.83;27.00;;;10.70;75.50;;;;;;4958421;28;20198;-89
2021/01/27 14:26:42;;;;;;;60.00;24.70;;;10.70;74.90;;;;;;4968947;28;20443;-88
2021/01/27 14:29:08;;;;;;;73.87;25.20;;;10.60;74.80;;;;;;4965804;28;20577;-89
2021/01/27 14:31:33;;;;;;;62.40;26.03;;;10.60;75.10;;;;;;5003373;28;20190;-87
2021/01/27 14:33:59;;;;;;;62.30;25.13;;;10.60;75.40;;;;;;5004587;28;20254;-89
2021/01/27 14:36:25;;;;;;;77.57;28.63;;;10.60;75.60;;;;;;4990259;28;20190;-89
2021/01/27 14:38:52;;;;;;;52.13;24.40;;;10.70;76.00;;;;;;4982970;28;20195;-88
2021/01/27 14:41:18;;;;;;;54.63;25.27;;;10.70;75.90;;;;;;4981036;28;20286;-88
2021/01/27 14:43:44;;;;;;;54.23;24.60;;;10.70;75.90;;;;;;4976012;28;20262;-88
2021/01/27 14:46:11;;;;;;;68.25;26.70;;;10.70;75.80;;;;;;4961965;28;20180;-88
2021/01/27 14:48:37;;;;;;;64.25;27.23;;;10.70;75.80;;;;;;4964056;28;20662;-88
2021/01/27 14:51:03;;;;;;;58.07;26.70;;;10.70;75.90;;;;;;4962495;28;20227;-88
2021/01/27 14:53:29;;;;;;;67.97;27.10;;;10.70;75.50;;;;;;4962163;28;20478;-89
2021/01/27 14:55:55;;;;;;;86.97;28.67;;;10.70;75.20;;;;;;4961756;28;20647;-89
2021/01/27 14:58:20;;;;;;;79.07;28.20;;;10.60;74.70;;;;;;4965011;28;20212;-88
2021/01/27 15:00:46;;;;;;;148.13;35.23;;;10.60;74.70;;;;;;4962396;28;20729;-88
2021/01/27 15:03:12;;;;;;;63.43;24.90;;;10.50;74.30;;;;;;4962675;28;20207;-88
2021/01/27 15:05:37;;;;;;;54.80;24.67;;;10.40;74.80;;;;;;4969474;28;20243;-88
2021/01/27 15:08:04;;;;;;;62.93;27.90;;;10.40;75.20;;;;;;4961758;28;20180;-88
2021/01/27 15:10:29;;;;;;;65.00;25.85;;;10.50;75.40;;;;;;4959853;28;20474;-89
2021/01/27 15:12:56;;;;;;;87.57;28.10;;;10.50;75.40;;;;;;4962160;28;20188;-88
2021/01/27 15:15:22;;;;;;;164.80;38.25;;;10.50;75.30;;;;;;4960922;28;20447;-88
2021/01/27 15:17:48;;;;;;;77.10;29.50;;;10.50;75.20;;;;;;4961459;28;20208;-88
2021/01/27 15:20:20;;;;;;;64.60;28.10;;;10.50;75.40;;;;;;4990397;28;20414;-89
2021/01/27 15:22:45;;;;;;;69.95;27.95;;;10.60;75.40;;;;;;4996126;28;20462;-88
2021/01/27 15:25:12;;;;;;;69.73;25.33;;;10.60;75.40;;;;;;4981820;28;20211;-89
2021/01/27 15:27:39;;;;;;;73.72;25.45;;;10.60;75.40;;;;;;4980009;28;20184;-88
2021/01/27 15:30:07;;;;;;;55.42;25.30;;;10.60;75.40;;;;;;4987280;28;20176;-88
2021/01/27 15:32:33;;;;;;;57.25;25.90;;;10.60;75.40;;;;;;4963300;28;20207;-89
2021/01/27 15:34:59;;;;;;;59.43;25.77;;;10.60;75.40;;;;;;4965242;28;20551;-89
2021/01/27 15:37:25;;;;;;;57.07;24.63;;;10.60;75.40;;;;;;4961198;28;20455;-89
2021/01/27 15:39:50;;;;;;;74.40;28.30;;;10.70;75.40;;;;;;4961686;28;20187;-88
2021/01/27 15:42:18;;;;;;;67.63;28.90;;;10.70;75.50;;;;;;4961891;28;20447;-89
2021/01/27 15:44:44;;;;;;;62.05;25.25;;;10.70;75.30;;;;;;4961600;28;20293;-88
2021/01/27 15:47:10;;;;;;;78.50;27.20;;;10.70;74.90;;;;;;4961502;28;20211;-88
2021/01/27 15:49:35;;;;;;;61.23;24.40;;;10.70;75.00;;;;;;4961177;28;20251;-88
2021/01/27 15:52:01;;;;;;;70.37;26.83;;;10.70;74.80;;;;;;4970211;28;20659;-90
2021/01/27 15:54:27;;;;;;;68.53;26.47;;;10.60;74.80;;;;;;4986504;28;20175;-89
2021/01/27 15:56:54;;;;;;;68.50;28.30;;;10.60;74.90;;;;;;4985650;28;20422;-87
2021/01/27 15:59:19;;;;;;;76.05;27.95;;;10.60;75.10;;;;;;4988104;28;20213;-90
2021/01/27 16:01:45;;;;;;;58.17;26.47;;;10.60;74.70;;;;;;4964855;28;20286;-91
2021/01/27 16:04:15;;;;;;;75.67;28.40;;;10.60;75.00;;;;;;4966388;28;20450;-88
2021/01/27 16:06:42;;;;;;;75.10;25.70;;;10.70;75.20;;;;;;4968665;28;20454;-88
2021/01/27 16:09:08;;;;;;;73.53;26.23;;;10.70;75.30;;;;;;4967949;28;20184;-90
2021/01/27 16:11:35;;;;;;;73.05;31.83;;;10.70;75.30;;;;;;4967692;28;20203;-89
2021/01/27 16:14:01;;;;;;;58.95;27.33;;;10.70;75.10;;;;;;4973877;28;20327;-90
2021/01/27 16:16:27;;;;;;;72.72;27.77;;;10.70;75.30;;;;;;4967638;28;20184;-90
2021/01/27 16:18:53;;;;;;;76.67;29.30;;;10.70;75.40;;;;;;4993130;28;20246;-88
2021/01/27 16:21:19;;;;;;;66.63;28.67;;;10.70;75.40;;;;;;4999483;28;20203;-89
2021/01/27 16:23:44;;;;;;;83.53;27.80;;;10.70;75.50;;;;;;4987777;28;20202;-88
2021/01/27 16:26:10;;;;;;;81.30;28.77;;;10.70;75.50;;;;;;4989041;28;20187;-89
2021/01/27 16:28:36;;;;;;;66.93;25.73;;;10.70;75.70;;;;;;4988406;28;20202;-88
2021/01/27 16:31:04;;;;;;;64.80;26.20;;;10.80;75.60;;;;;;4969321;28;20188;-90
2021/01/27 16:33:30;;;;;;;66.63;29.67;;;10.70;75.70;;;;;;4968206;28;20180;-88
2021/01/27 16:35:57;;;;;;;63.37;26.33;;;10.80;75.80;;;;;;4966258;28;20235;-87
2021/01/27 16:38:23;;;;;;;63.50;25.77;;;10.80;75.60;;;;;;4965568;28;20539;-87
2021/01/27 16:40:50;;;;;;;72.70;27.63;;;10.80;75.70;;;;;;4982349;28;20200;-89
2021/01/27 16:43:17;;;;;;;53.67;25.15;;;10.80;75.50;;;;;;4965995;28;20234;-87
2021/01/27 16:45:43;;;;;;;55.75;25.30;;;10.80;75.60;;;;;;4983245;28;20184;-88
2021/01/27 16:48:09;;;;;;;67.22;29.50;;;10.80;75.60;;;;;;4965503;28;20227;-89
2021/01/27 16:50:35;;;;;;;67.88;27.80;;;10.80;75.70;;;;;;4965348;28;20204;-88
2021/01/27 16:53:01;;;;;;;64.40;27.90;;;10.90;75.50;;;;;;4965042;28;20176;-89
2021/01/27 16:55:29;;;;;;;67.97;28.88;;;10.80;75.40;;;;;;4966130;28;20419;-88
2021/01/27 16:57:55;;;;;;;67.82;28.15;;;10.80;75.50;;;;;;4965528;28;20702;-89
2021/01/27 17:00:24;;;;;;;72.30;27.05;;;10.80;75.60;;;;;;4966683;28;20176;-87
2021/01/27 17:02:54;;;;;;;67.50;24.60;;;10.80;75.70;;;;;;4967712;28;20199;-87
2021/01/27 17:05:28;;;;;;;73.07;29.77;;;10.90;75.70;;;;;;4966695;28;20164;-86
2021/01/27 17:07:54;;;;;;;69.28;26.70;;;10.90;75.70;;;;;;4964054;28;20176;-87
2021/01/27 17:10:20;;;;;;;61.55;24.95;;;10.80;75.70;;;;;;4964060;28;20210;-87
2021/01/27 17:12:47;;;;;;;72.43;25.50;;;10.80;75.90;;;;;;4964448;28;20307;-87
2021/01/27 17:15:14;;;;;;;64.82;27.08;;;10.80;76.00;;;;;;4969273;28;20187;-85
2021/01/27 17:17:40;;;;;;;70.78;25.45;;;10.90;76.20;;;;;;4970145;28;20298;-86
2021/01/27 17:20:07;;;;;;;59.58;25.30;;;10.90;76.20;;;;;;4974743;28;20167;-86
2021/01/27 17:22:34;;;;;;;57.28;24.90;;;10.90;76.20;;;;;;4989372;28;20203;-86
2021/01/27 17:24:59;;;;;;;73.80;25.92;;;10.90;76.20;;;;;;4982430;28;20214;-86
2021/01/27 17:27:25;;;;;;;69.13;26.67;;;10.90;76.30;;;;;;4986780;28;20572;-86
2021/01/27 17:29:51;;;;;;;61.47;26.00;;;10.90;76.40;;;;;;4980511;28;20206;-86
2021/01/27 17:32:17;;;;;;;60.73;27.00;;;10.90;76.30;;;;;;4982089;28;20642;-86
2021/01/27 17:34:43;;;;;;;57.90;26.23;;;10.90;76.00;;;;;;4975011;28;20442;-85
2021/01/27 17:37:09;;;;;;;63.63;25.93;;;10.80;76.20;;;;;;5009638;28;20203;-86
2021/01/27 17:39:35;;;;;;;63.90;26.00;;;10.80;76.50;;;;;;4992116;28;20209;-85
2021/01/27 17:42:05;;;;;;;56.57;25.60;;;10.90;76.60;;;;;;4975659;28;20443;-84
2021/01/27 17:44:32;;;;;;;55.15;25.00;;;10.90;76.80;;;;;;4978170;28;20419;-84
2021/01/27 17:46:58;;;;;;;58.95;22.35;;;10.90;77.20;;;;;;4993048;28;20180;-86
2021/01/27 17:49:24;;;;;;;63.60;24.20;;;10.90;77.10;;;;;;5008900;28;20179;-84
2021/01/27 17:51:50;;;;;;;73.03;26.07;;;11.00;77.20;;;;;;4998647;28;20442;-84
2021/01/27 17:54:18;;;;;;;63.40;24.97;;;11.00;77.10;;;;;;4988782;28;20219;-83
2021/01/27 17:56:44;;;;;;;60.10;26.75;;;11.00;77.00;;;;;;4981885;28;20406;-85
2021/01/27 17:59:11;;;;;;;76.60;31.00;;;11.00;76.70;;;;;;5002968;28;20195;-84
2021/01/27 18:01:36;;;;;;;73.35;28.48;;;11.00;76.70;;;;;;4985342;28;20214;-85
2021/01/27 18:04:03;;;;;;;72.03;29.30;;;11.00;76.80;;;;;;4983694;28;20192;-85
2021/01/27 18:06:28;;;;;;;66.93;26.48;;;11.00;76.70;;;;;;4996774;28;20202;-86
2021/01/27 18:08:54;;;;;;;72.73;28.30;;;11.00;76.70;;;;;;5014215;28;20187;-85
2021/01/27 18:11:20;;;;;;;69.63;27.40;;;11.00;76.60;;;;;;4981807;28;20223;-86
2021/01/27 18:13:46;;;;;;;74.50;27.20;;;11.00;76.50;;;;;;4983747;28;20693;-86
2021/01/27 18:16:11;;;;;;;66.17;28.03;;;11.00;76.50;;;;;;4978187;28;20195;-85
2021/01/27 18:18:37;;;;;;;74.07;26.60;;;11.10;77.50;;;;;;4976616;28;20204;-86
2021/01/27 18:21:04;;;;;;;74.13;30.65;;;11.10;76.80;;;;;;4972939;28;20461;-86
2021/01/27 18:23:30;;;;;;;71.72;27.50;;;11.10;76.80;;;;;;4975754;28;20182;-84
2021/01/27 18:26:03;;;;;;;73.57;28.40;;;11.10;76.90;;;;;;4976345;28;20192;-86
2021/01/27 18:28:31;;;;;;;65.80;25.55;;;11.20;77.00;;;;;;4978356;28;20222;-87
2021/01/27 18:30:58;;;;;;;75.70;30.00;;;11.20;76.80;;;;;;4999732;28;20214;-85
2021/01/27 18:33:24;;;;;;;69.68;26.92;;;11.20;76.80;;;;;;5004456;28;20194;-85
2021/01/27 18:35:51;;;;;;;59.85;26.98;;;11.20;76.60;;;;;;5003753;28;20167;-85
2021/01/27 18:38:19;;;;;;;60.63;26.60;;;11.20;76.50;;;;;;5003549;28;20203;-87
2021/01/27 18:40:45;;;;;;;78.65;31.33;;;11.30;76.40;;;;;;4990042;28;20172;-90
2021/01/27 18:43:14;;;;;;;83.47;31.80;;;11.30;76.00;;;;;;4984368;28;20180;-89
2021/01/27 18:45:43;;;;;;;60.42;27.23;;;11.30;75.80;;;;;;4983693;28;20494;-87
2021/01/27 18:48:14;;;;;;;62.85;26.67;;;11.30;75.80;;;;;;4984085;28;20168;-87
2021/01/27 18:50:40;;;;;;;58.03;22.40;;;11.20;75.80;;;;;;4982559;28;20242;-88
2021/01/27 18:53:07;;;;;;;63.63;25.23;;;11.30;76.10;;;;;;4998536;28;20195;-89
2021/01/27 18:55:33;;;;;;;69.60;27.85;;;11.20;76.00;;;;;;4978554;28;20196;-90
2021/01/27 18:57:58;;;;;;;63.87;27.33;;;11.20;76.20;;;;;;4979645;28;20216;-88
2021/01/27 19:00:26;;;;;;;73.83;28.93;;;11.30;76.30;;;;;;4977393;28;20190;-89
2021/01/27 19:02:54;;;;;;;68.60;29.23;;;11.30;76.00;;;;;;4977264;28;20192;-88
2021/01/27 19:05:21;;;;;;;70.90;26.08;;;11.30;76.00;;;;;;4976981;28;20220;-88
2021/01/27 19:07:47;;;;;;;57.97;26.67;;;11.30;76.00;;;;;;4967916;28;20172;-89
2021/01/27 19:10:16;;;;;;;70.05;23.67;;;11.20;76.00;;;;;;4969074;28;20187;-88
2021/01/27 19:12:45;;;;;;;69.45;28.33;;;11.20;76.10;;;;;;4968025;28;20210;-88
2021/01/27 19:15:12;;;;;;;58.33;24.60;;;11.30;76.20;;;;;;4962507;28;20268;-88
2021/01/27 19:17:38;;;;;;;62.63;26.08;;;11.30;76.20;;;;;;4963019;28;20686;-88
2021/01/27 19:20:06;;;;;;;61.87;26.00;;;11.30;76.20;;;;;;4962260;28;20275;-87
2021/01/27 19:22:32;;;;;;;65.05;25.85;;;11.30;76.30;;;;;;4966797;28;20525;-87
2021/01/27 19:24:58;;;;;;;64.50;23.73;;;11.30;76.30;;;;;;4984189;28;20656;-87
2021/01/27 19:27:24;;;;;;;68.07;28.77;;;11.30;76.20;;;;;;4966764;28;20420;-87